createdAt,value
2022-08-18T00:01:23.009Z,66.07
2022-08-18T00:03:57.318Z,68.82
2022-08-18T00:06:30.118Z,68.07
2022-08-18T00:09:01.601Z,63.75
2022-08-18T00:11:41.301Z,66.00
2022-08-18T00:14:21.751Z,70.47
2022-08-18T00:16:52.525Z,65.70
2022-08-18T00:19:19.497Z,66.97
2022-08-18T00:21:45.959Z,69.18
2022-08-18T00:24:12.423Z,70.30
2022-08-18T00:26:38.999Z,72.82
2022-08-18T00:29:07.441Z,74.25
2022-08-18T00:31:34.208Z,74.38
2022-08-18T00:34:00.901Z,77.50
2022-08-18T00:36:27.893Z,75.53
2022-08-18T00:38:54.418Z,79.22
2022-08-18T00:41:22.749Z,86.38
2022-08-18T00:43:51.326Z,86.65
2022-08-18T00:46:24.885Z,90.75
2022-08-18T00:48:52.679Z,86.78
2022-08-18T00:51:26.178Z,81.35
2022-08-18T00:54:10.998Z,81.70
2022-08-18T00:56:43.921Z,84.35
2022-08-18T00:59:26.553Z,89.43
2022-08-18T01:01:55.694Z,92.65
2022-08-18T01:04:26.965Z,93.95
2022-08-18T01:07:00.665Z,93.65
2022-08-18T01:09:27.866Z,97.63
2022-08-18T01:11:54.388Z,95.15
2022-08-18T01:14:21.017Z,99.57
2022-08-18T01:17:08.580Z,95.85
2022-08-18T01:19:55.366Z,92.38
2022-08-18T01:22:35.194Z,92.63
2022-08-18T01:25:20.853Z,95.82
2022-08-18T01:27:51.370Z,93.97
2022-08-18T01:30:18.358Z,95.30
2022-08-18T01:32:46.014Z,92.28
2022-08-18T01:35:15.930Z,97.93
2022-08-18T01:37:42.560Z,101.22
2022-08-18T01:41:17.404Z,104.38
2022-08-18T01:42:58.554Z,96.78
2022-08-18T01:45:25.243Z,103.55
2022-08-18T01:47:51.691Z,100.68
2022-08-18T01:50:18.381Z,108.80
2022-08-18T01:52:45.179Z,106.68
2022-08-18T01:55:11.754Z,104.25
2022-08-18T01:57:42.991Z,105.80
2022-08-18T02:00:12.581Z,103.22
2022-08-18T02:02:39.897Z,103.43
2022-08-18T02:05:29.090Z,104.07
2022-08-18T02:07:57.976Z,103.55
2022-08-18T02:10:24.944Z,106.45
2022-08-18T02:12:51.375Z,110.15
2022-08-18T02:15:17.831Z,108.85
2022-08-18T02:17:45.858Z,105.68
2022-08-18T02:20:15.752Z,114.68
2022-08-18T02:22:43.070Z,108.72
2022-08-18T02:25:11.410Z,109.50
2022-08-18T02:27:38.228Z,106.95
2022-08-18T02:30:07.965Z,109.25
2022-08-18T02:32:35.076Z,109.03
2022-08-18T02:35:04.046Z,110.18
2022-08-18T02:37:35.234Z,108.18
2022-08-18T02:40:01.861Z,109.68
2022-08-18T02:42:28.642Z,107.55
2022-08-18T02:44:55.250Z,102.03
2022-08-18T02:47:22.232Z,111.15
2022-08-18T02:49:49.411Z,121.47
2022-08-18T02:52:17.346Z,118.93
2022-08-18T02:54:44.059Z,107.15
2022-08-18T02:57:12.138Z,110.18
2022-08-18T02:59:40.270Z,96.90
2022-08-18T03:02:09.110Z,102.35
2022-08-18T03:04:36.091Z,96.63
2022-08-18T03:07:04.632Z,106.80
2022-08-18T03:09:32.447Z,89.53
2022-08-18T03:11:59.824Z,97.95
2022-08-18T03:14:27.030Z,96.30
2022-08-18T03:16:55.253Z,90.20
2022-08-18T03:19:24.105Z,94.50
2022-08-18T03:21:50.825Z,94.97
2022-08-18T03:24:22.657Z,92.07
2022-08-18T03:26:51.400Z,93.47
2022-08-18T03:29:18.233Z,94.25
2022-08-18T03:31:45.418Z,96.20
2022-08-18T03:34:15.747Z,94.07
2022-08-18T03:36:42.238Z,90.53
2022-08-18T03:39:11.264Z,95.28
2022-08-18T03:41:43.918Z,97.68
2022-08-18T03:44:32.980Z,90.25
2022-08-18T03:47:02.813Z,93.43
2022-08-18T03:49:29.573Z,87.82
2022-08-18T03:51:57.017Z,90.10
2022-08-18T03:54:24.235Z,93.90
2022-08-18T03:56:51.082Z,97.10
2022-08-18T03:59:21.334Z,96.45
2022-08-18T04:01:52.266Z,89.43
2022-08-18T04:04:22.880Z,89.47
2022-08-18T04:06:59.545Z,91.30
2022-08-18T04:10:04.773Z,83.75
2022-08-18T04:12:52.631Z,89.28
2022-08-18T04:15:19.493Z,89.80
2022-08-18T04:17:56.247Z,93.13
2022-08-18T04:23:01.226Z,94.25
2022-08-18T04:25:32.585Z,94.60
2022-08-18T04:28:01.504Z,98.20
2022-08-18T04:30:29.067Z,95.68
2022-08-18T04:32:55.588Z,94.05
2022-08-18T04:35:23.700Z,98.38
2022-08-18T04:37:50.376Z,93.28
2022-08-18T04:40:20.242Z,92.50
2022-08-18T04:42:58.010Z,92.88
2022-08-18T04:45:24.460Z,93.25
2022-08-18T04:47:51.664Z,91.47
2022-08-18T04:50:18.930Z,87.80
2022-08-18T04:53:03.979Z,94.25
2022-08-18T04:55:30.468Z,94.53
2022-08-18T04:57:59.008Z,91.50
2022-08-18T05:00:25.528Z,85.97
2022-08-18T05:02:54.441Z,89.88
2022-08-18T05:05:20.887Z,88.07
2022-08-18T05:07:47.632Z,91.53
2022-08-18T05:10:17.602Z,90.03
2022-08-18T05:12:47.185Z,88.75
2022-08-18T05:15:13.643Z,89.93
2022-08-18T05:17:40.218Z,86.05
2022-08-18T05:20:08.764Z,87.63
2022-08-18T05:22:40.706Z,91.57
2022-08-18T05:25:11.896Z,86.38
2022-08-18T05:27:42.642Z,89.70
2022-08-18T05:30:11.217Z,89.03
2022-08-18T05:32:49.200Z,91.75
2022-08-18T05:35:28.866Z,91.03
2022-08-18T05:38:38.068Z,95.85
2022-08-18T05:41:14.029Z,90.55
2022-08-18T05:43:52.160Z,84.82
2022-08-18T05:46:21.959Z,84.78
2022-08-18T05:48:48.638Z,89.53
2022-08-18T05:51:28.075Z,88.78
2022-08-18T05:54:13.068Z,86.35
2022-08-18T05:56:48.841Z,88.18
2022-08-18T05:59:32.475Z,86.30
2022-08-18T06:02:07.823Z,92.32
2022-08-18T06:04:49.458Z,92.22
2022-08-18T06:07:23.163Z,90.95
2022-08-18T06:09:52.565Z,90.82
2022-08-18T06:12:26.018Z,95.03
2022-08-18T06:15:07.190Z,98.10
2022-08-18T06:17:51.237Z,96.85
2022-08-18T06:20:46.160Z,98.82
2022-08-18T06:23:50.385Z,96.03
2022-08-18T06:26:34.987Z,94.70
2022-08-18T06:29:13.611Z,96.20
2022-08-18T06:31:56.738Z,94.13
2022-08-18T06:34:40.740Z,94.25
2022-08-18T06:37:12.874Z,96.40
2022-08-18T06:39:46.573Z,93.97
2022-08-18T06:42:16.009Z,95.80
2022-08-18T06:44:50.502Z,91.25
2022-08-18T06:47:49.389Z,96.43
2022-08-18T06:50:37.402Z,94.60
2022-08-18T06:53:27.455Z,90.60
2022-08-18T06:55:55.132Z,91.80
2022-08-18T06:58:27.687Z,94.18
2022-08-18T07:00:56.673Z,90.20
2022-08-18T07:03:42.179Z,94.32
2022-08-18T07:06:13.545Z,87.85
2022-08-18T07:08:45.350Z,90.90
2022-08-18T07:11:14.106Z,91.63
2022-08-18T07:13:44.368Z,91.80
2022-08-18T07:16:54.445Z,91.38
2022-08-18T07:19:20.621Z,87.75
2022-08-18T07:22:02.901Z,90.30
2022-08-18T07:24:34.242Z,87.05
2022-08-18T07:27:13.389Z,84.00
2022-08-18T07:29:59.960Z,77.88
2022-08-18T07:32:34.733Z,74.53
2022-08-18T07:35:04.488Z,77.47
2022-08-18T07:37:45.423Z,73.72
2022-08-18T07:40:19.938Z,75.43
2022-08-18T07:43:02.578Z,77.07
2022-08-18T07:45:42.967Z,76.70
2022-08-18T07:48:37.086Z,72.93
2022-08-18T07:51:15.251Z,71.50
2022-08-18T07:53:55.916Z,72.10
2022-08-18T07:56:47.590Z,73.97
2022-08-18T07:59:19.432Z,72.53
2022-08-18T08:02:10.453Z,66.80
2022-08-18T08:04:49.378Z,67.10
2022-08-18T08:07:24.924Z,68.00
2022-08-18T08:10:15.133Z,70.03
2022-08-18T08:13:08.080Z,64.10
2022-08-18T08:16:02.943Z,62.03
2022-08-18T08:18:35.528Z,58.85
2022-08-18T08:21:08.908Z,55.45
2022-08-18T08:23:54.368Z,51.93
2022-08-18T08:26:42.663Z,51.80
2022-08-18T08:29:31.300Z,50.63
2022-08-18T08:32:22.188Z,42.00
2022-08-18T08:35:49.644Z,44.58
2022-08-18T08:38:42.909Z,45.13
2022-08-18T08:41:31.363Z,44.28
2022-08-18T08:44:09.185Z,39.33
2022-08-18T08:46:46.649Z,43.85
2022-08-18T08:49:37.632Z,38.97
2022-08-18T08:52:18.763Z,40.53
2022-08-18T08:54:57.370Z,36.67
2022-08-18T08:57:32.237Z,38.00
2022-08-18T09:00:03.786Z,41.10
2022-08-18T09:02:48.089Z,40.53
2022-08-18T09:05:28.932Z,36.85
2022-08-18T09:08:13.504Z,32.33
2022-08-18T09:11:03.910Z,32.65
2022-08-18T09:13:41.515Z,32.53
2022-08-18T09:16:13.579Z,30.58
2022-08-18T09:19:01.066Z,31.13
2022-08-18T09:21:55.566Z,32.17
2022-08-18T09:24:29.945Z,33.03
2022-08-18T09:27:02.257Z,31.05
2022-08-18T09:29:37.803Z,27.23
2022-08-18T09:32:43.960Z,32.67
2022-08-18T09:38:28.426Z,30.33
2022-08-18T09:41:23.531Z,28.30
2022-08-18T09:44:21.360Z,45.55
2022-08-18T09:47:01.321Z,27.77
2022-08-18T09:49:54.589Z,25.17
2022-08-18T09:52:27.608Z,27.15
2022-08-18T09:55:26.239Z,24.23
2022-08-18T09:58:30.814Z,23.63
2022-08-18T10:01:23.325Z,24.80
2022-08-18T10:04:29.300Z,25.67
2022-08-18T10:07:18.540Z,36.15
2022-08-18T10:09:58.777Z,32.22
2022-08-18T10:12:49.041Z,29.73
2022-08-18T10:15:33.082Z,35.10
2022-08-18T10:18:00.910Z,33.15
2022-08-18T10:20:55.045Z,28.42
2022-08-18T10:23:58.444Z,33.08
2022-08-18T10:26:37.451Z,34.92
2022-08-18T10:29:34.636Z,30.17
2022-08-18T10:32:01.182Z,32.88
2022-08-18T10:34:51.784Z,32.95
2022-08-18T10:37:21.531Z,28.50
2022-08-18T10:39:56.158Z,28.57
2022-08-18T10:42:28.578Z,28.83
2022-08-18T10:45:08.063Z,25.23
2022-08-18T10:47:37.019Z,27.80
2022-08-18T10:50:09.249Z,25.48
2022-08-18T10:52:54.572Z,23.83
2022-08-18T10:55:48.905Z,25.88
2022-08-18T10:58:41.700Z,26.92
2022-08-18T11:01:39.467Z,25.55
2022-08-18T11:04:33.830Z,28.25
2022-08-18T11:07:23.126Z,27.88
2022-08-18T11:10:04.542Z,29.73
2022-08-18T11:12:49.857Z,29.45
2022-08-18T11:15:26.693Z,28.95
2022-08-18T11:18:19.976Z,28.05
2022-08-18T11:20:47.473Z,28.17
2022-08-18T11:23:17.187Z,24.33
2022-08-18T11:25:44.897Z,26.27
2022-08-18T11:28:20.880Z,25.88
2022-08-18T11:30:55.711Z,26.98
2022-08-18T11:33:24.556Z,28.85
2022-08-18T11:36:01.480Z,27.48
2022-08-18T11:38:31.270Z,26.58
2022-08-18T11:41:18.862Z,25.42
2022-08-18T11:43:47.893Z,28.13
2022-08-18T11:46:28.167Z,27.50
2022-08-18T11:48:59.999Z,28.27
2022-08-18T11:51:33.719Z,26.15
2022-08-18T11:54:23.550Z,27.42
2022-08-18T11:56:51.418Z,28.30
2022-08-18T11:59:52.826Z,30.15
2022-08-18T12:02:21.233Z,30.50
2022-08-18T12:04:56.992Z,31.63
2022-08-18T12:07:32.124Z,31.45
2022-08-18T12:10:28.410Z,31.17
2022-08-18T12:12:59.630Z,31.92
2022-08-18T12:15:46.444Z,31.08
2022-08-18T12:18:18.795Z,33.80
2022-08-18T12:20:52.981Z,31.27
2022-08-18T12:23:19.453Z,28.35
2022-08-18T12:25:48.010Z,29.63
2022-08-18T12:28:19.221Z,29.73
2022-08-18T12:30:47.756Z,28.30
2022-08-18T12:33:14.395Z,29.15
2022-08-18T12:35:42.243Z,28.38
2022-08-18T12:38:12.755Z,29.10
2022-08-18T12:40:40.998Z,28.33
2022-08-18T12:43:07.686Z,26.83
2022-08-18T12:45:34.296Z,27.92
2022-08-18T12:48:04.558Z,28.48
2022-08-18T12:50:36.301Z,30.60
2022-08-18T12:53:06.553Z,31.48
2022-08-18T12:55:37.789Z,27.75
2022-08-18T12:58:11.323Z,24.50
2022-08-18T13:00:39.450Z,22.85
2022-08-18T13:03:07.175Z,23.92
2022-08-18T13:05:36.064Z,23.10
2022-08-18T13:08:05.883Z,23.65
2022-08-18T13:10:43.033Z,22.75
2022-08-18T13:13:13.556Z,22.10
2022-08-18T13:15:44.354Z,22.08
2022-08-18T13:18:28.928Z,21.27
2022-08-18T13:20:59.434Z,21.90
2022-08-18T13:23:27.497Z,23.30
2022-08-18T13:26:01.413Z,23.60
2022-08-18T13:28:30.267Z,24.50
2022-08-18T13:30:57.242Z,23.25
2022-08-18T13:33:33.917Z,20.85
2022-08-18T13:36:01.991Z,19.52
2022-08-18T13:38:31.546Z,19.30
2022-08-18T13:41:00.701Z,19.83
2022-08-18T13:43:32.068Z,17.50
2022-08-18T13:45:59.917Z,15.00
2022-08-18T13:48:29.808Z,14.63
2022-08-18T13:50:58.920Z,14.75
2022-08-18T13:53:29.506Z,16.95
2022-08-18T13:56:00.825Z,19.33
2022-08-18T13:58:29.272Z,27.70
2022-08-18T14:03:47.984Z,20.55
2022-08-18T14:06:15.711Z,28.63
2022-08-18T14:08:49.665Z,36.05
2022-08-18T14:14:07.218Z,31.23
2022-08-18T14:16:38.446Z,15.40
2022-08-18T14:19:29.018Z,16.35
2022-08-18T14:22:32.050Z,16.25
2022-08-18T14:25:17.184Z,17.92
2022-08-18T14:27:56.706Z,16.55
2022-08-18T14:30:24.209Z,36.40
2022-08-18T14:32:53.392Z,27.52
2022-08-18T14:36:03.784Z,34.83
2022-08-18T14:38:09.831Z,27.35
2022-08-18T14:40:42.936Z,32.03
2022-08-18T14:43:11.236Z,22.42
2022-08-18T14:45:45.786Z,32.15
2022-08-18T14:48:12.502Z,26.92
2022-08-18T14:50:44.817Z,15.50
2022-08-18T14:53:20.087Z,13.20
2022-08-18T14:55:52.546Z,12.80
2022-08-18T14:58:21.210Z,8.80
2022-08-18T15:00:54.070Z,16.63
2022-08-18T15:03:28.200Z,11.07
2022-08-18T15:05:58.751Z,11.32
2022-08-18T15:08:26.150Z,20.50
2022-08-18T15:10:53.947Z,11.65
2022-08-18T15:13:20.774Z,13.27
2022-08-18T15:15:53.612Z,12.07
2022-08-18T15:18:22.839Z,17.88
2022-08-18T15:21:10.282Z,24.60
2022-08-18T15:24:04.692Z,23.23
2022-08-18T15:26:42.491Z,24.00
2022-08-18T15:29:10.889Z,25.60
2022-08-18T15:32:01.940Z,18.13
2022-08-18T15:34:28.662Z,18.65
2022-08-18T15:36:56.932Z,19.92
2022-08-18T15:39:24.201Z,19.80
2022-08-18T15:44:22.343Z,21.15
2022-08-18T15:46:53.283Z,19.02
2022-08-18T15:49:21.716Z,24.48
2022-08-18T15:51:49.637Z,21.65
2022-08-18T15:54:16.366Z,25.02
2022-08-18T15:56:58.101Z,30.75
2022-08-18T15:59:26.979Z,24.02
2022-08-18T16:02:02.138Z,27.15
2022-08-18T16:04:28.640Z,11.70
2022-08-18T16:06:56.151Z,26.90
2022-08-18T16:09:22.800Z,20.25
2022-08-18T16:11:49.590Z,17.48
2022-08-18T16:14:16.069Z,13.18
2022-08-18T16:16:42.517Z,13.20
2022-08-18T16:19:08.960Z,13.43
2022-08-18T16:21:39.589Z,13.27
2022-08-18T16:24:07.764Z,12.38
2022-08-18T16:26:35.484Z,13.48
2022-08-18T16:29:02.204Z,13.52
2022-08-18T16:31:29.394Z,14.00
2022-08-18T16:33:57.885Z,13.18
2022-08-18T16:36:27.828Z,15.82
2022-08-18T16:38:58.202Z,15.63
2022-08-18T16:41:26.550Z,13.35
2022-08-18T16:43:53.160Z,15.95
2022-08-18T16:46:26.455Z,14.50
2022-08-18T16:48:57.917Z,16.80
2022-08-18T16:51:27.353Z,17.45
2022-08-18T16:53:54.552Z,14.80
2022-08-18T16:56:27.603Z,20.95
2022-08-18T16:59:13.222Z,22.25
2022-08-18T17:01:59.194Z,15.57
2022-08-18T17:04:33.372Z,18.45
2022-08-18T17:07:01.668Z,17.88
2022-08-18T17:09:33.045Z,12.88
2022-08-18T17:11:59.803Z,19.75
2022-08-18T17:14:28.393Z,13.07
2022-08-18T17:16:56.030Z,16.88
2022-08-18T17:19:24.475Z,14.65
2022-08-18T17:21:51.282Z,14.15
2022-08-18T17:24:18.617Z,14.48
2022-08-18T17:27:11.900Z,16.85
2022-08-18T17:30:30.708Z,14.07
2022-08-18T17:33:15.959Z,13.88
2022-08-18T17:35:45.245Z,15.85
2022-08-18T17:38:32.502Z,15.70
2022-08-18T17:41:04.377Z,17.95
2022-08-18T17:46:19.414Z,15.70
2022-08-18T17:48:55.116Z,16.05
2022-08-18T17:51:43.451Z,18.05
2022-08-18T17:54:23.447Z,17.77
2022-08-18T17:56:54.460Z,22.35
2022-08-18T17:59:45.318Z,15.23
2022-08-18T18:02:29.219Z,17.08
2022-08-18T18:05:01.305Z,16.70
2022-08-18T18:07:35.662Z,17.77
2022-08-18T18:10:22.333Z,16.63
2022-08-18T18:13:25.130Z,17.42
2022-08-18T18:15:55.851Z,20.00
2022-08-18T18:18:33.916Z,18.48
2022-08-18T18:21:22.865Z,19.65
2022-08-18T18:24:09.221Z,19.58
2022-08-18T18:26:43.485Z,22.30
2022-08-18T18:29:16.964Z,18.85
2022-08-18T18:32:04.096Z,21.30
2022-08-18T18:35:03.762Z,19.40
2022-08-18T18:37:33.060Z,17.65
2022-08-18T18:40:04.084Z,19.15
2022-08-18T18:42:33.183Z,18.15
2022-08-18T18:45:02.995Z,16.98
2022-08-18T18:47:32.309Z,17.58
2022-08-18T18:50:12.525Z,16.67
2022-08-18T18:53:01.581Z,15.00
2022-08-18T18:55:33.240Z,17.77
2022-08-18T18:58:23.969Z,19.25
2022-08-18T19:00:59.536Z,15.37
2022-08-18T19:03:48.394Z,13.27
2022-08-18T19:06:31.189Z,13.50
2022-08-18T19:09:03.777Z,15.40
2022-08-18T19:11:41.005Z,15.00
2022-08-18T19:14:17.549Z,15.50
2022-08-18T19:16:54.117Z,16.00
2022-08-18T19:19:35.335Z,15.93
2022-08-18T19:22:31.139Z,16.70
2022-08-18T19:25:07.418Z,15.75
2022-08-18T19:27:40.152Z,16.80
2022-08-18T19:30:13.403Z,16.08
2022-08-18T19:32:48.710Z,17.02
2022-08-18T19:35:19.894Z,16.00
2022-08-18T19:38:22.870Z,15.13
2022-08-18T19:40:54.925Z,16.38
2022-08-18T19:43:35.985Z,14.63
2022-08-18T19:46:20.494Z,17.08
2022-08-18T19:49:01.405Z,36.97
2022-08-18T19:51:37.455Z,16.10
2022-08-18T19:54:23.540Z,15.88
2022-08-18T19:57:11.842Z,16.55
2022-08-18T19:59:45.817Z,15.60
2022-08-18T20:02:19.364Z,14.95
2022-08-18T20:05:01.037Z,16.02
2022-08-18T20:07:27.461Z,14.95
2022-08-18T20:10:23.268Z,14.40
2022-08-18T20:13:05.483Z,15.35
2022-08-18T20:15:32.063Z,18.58
2022-08-18T20:17:58.427Z,18.83
2022-08-18T20:20:43.156Z,19.58
2022-08-18T20:23:29.926Z,21.27
2022-08-18T20:25:56.539Z,22.17
2022-08-18T20:28:32.459Z,23.65
2022-08-18T20:31:15.206Z,23.23
2022-08-18T20:33:46.988Z,23.98
2022-08-18T20:36:28.561Z,23.75
2022-08-18T20:38:58.585Z,25.42
2022-08-18T20:41:28.203Z,25.02
2022-08-18T20:44:36.478Z,22.35
2022-08-18T20:47:09.281Z,21.25
2022-08-18T20:50:13.344Z,22.00
2022-08-18T20:53:01.907Z,22.52
2022-08-18T20:56:32.619Z,23.02
2022-08-18T20:59:11.989Z,22.73
2022-08-18T21:01:39.036Z,24.23
2022-08-18T21:04:06.415Z,22.65
2022-08-18T21:06:38.846Z,25.83
2022-08-18T21:09:05.502Z,25.48
2022-08-18T21:11:40.711Z,25.45
2022-08-18T21:14:07.765Z,26.17
2022-08-18T21:16:39.259Z,34.75
2022-08-18T21:19:27.876Z,30.48
2022-08-18T21:21:58.055Z,29.70
2022-08-18T21:24:43.014Z,25.55
2022-08-18T21:27:40.558Z,28.83
2022-08-18T21:30:17.441Z,28.17
2022-08-18T21:32:46.912Z,32.45
2022-08-18T21:35:28.353Z,31.60
2022-08-18T21:38:10.683Z,32.78
2022-08-18T21:40:45.457Z,33.75
2022-08-18T21:43:15.276Z,43.30
2022-08-18T21:45:47.834Z,42.90
2022-08-18T21:48:14.877Z,35.00
2022-08-18T21:50:51.541Z,32.42
2022-08-18T21:53:28.132Z,31.63
2022-08-18T21:55:56.321Z,28.00
2022-08-18T21:58:32.782Z,32.63
2022-08-18T22:01:10.071Z,26.75
2022-08-18T22:03:49.846Z,30.60
2022-08-18T22:06:27.673Z,30.65
2022-08-18T22:09:28.216Z,34.65
2022-08-18T22:12:47.294Z,27.42
2022-08-18T22:15:19.860Z,24.85
2022-08-18T22:17:55.497Z,26.38
2022-08-18T22:20:46.131Z,25.45
2022-08-18T22:23:34.291Z,29.23
2022-08-18T22:26:12.646Z,27.80
2022-08-18T22:28:58.374Z,29.92
2022-08-18T22:31:31.145Z,27.40
2022-08-18T22:34:01.313Z,23.95
2022-08-18T22:36:32.575Z,28.67
2022-08-18T22:39:00.522Z,32.78
2022-08-18T22:41:27.322Z,35.53
2022-08-18T22:43:55.518Z,40.33
2022-08-18T22:46:24.193Z,29.08
2022-08-18T22:48:51.609Z,26.10
2022-08-18T22:51:22.192Z,28.00
2022-08-18T22:53:48.703Z,26.60
2022-08-18T22:56:15.403Z,28.63
2022-08-18T22:58:49.175Z,30.10
2022-08-18T23:01:17.578Z,30.83
2022-08-18T23:03:44.109Z,32.30
2022-08-18T23:06:11.080Z,29.90
2022-08-18T23:08:54.605Z,27.45
2022-08-18T23:11:24.123Z,30.70
2022-08-18T23:13:50.875Z,31.13
2022-08-18T23:16:30.729Z,26.35
2022-08-18T23:19:01.852Z,26.73
2022-08-18T23:21:34.863Z,28.98
2022-08-18T23:24:03.360Z,28.37
2022-08-18T23:26:30.617Z,28.40
2022-08-18T23:28:57.605Z,28.25
2022-08-18T23:31:24.123Z,26.52
2022-08-18T23:33:50.640Z,28.08
2022-08-18T23:36:17.851Z,27.75
2022-08-18T23:38:44.614Z,27.73
2022-08-18T23:41:12.892Z,27.88
2022-08-18T23:43:39.549Z,28.92
2022-08-18T23:46:19.086Z,29.10
2022-08-18T23:48:49.692Z,25.30
2022-08-18T23:51:36.943Z,29.35
2022-08-18T23:54:06.851Z,28.67
2022-08-18T23:56:35.004Z,28.80
2022-08-18T23:59:02.848Z,30.17
